Time;durP1;ratioP1;P1;durP2;ratioP2;P2;SDS_P1;SDS_P2;PMS_P1;PMS_P2;Temp;Humidity;BMP_temperature;BMP_pressure;BME280_temperature;BME280_humidity;BME280_pressure;Samples;Min_cycle;Max_cycle;Signal;HPM_P1;HPM_P2
2021/03/04 00:01:59;;;;;;;147.00;40.78;;;6.00;99.90;;;;;;5071990;28;20035;-72
2021/03/04 00:04:24;;;;;;;131.50;36.72;;;6.10;99.90;;;;;;5071411;28;20446;-72
2021/03/04 00:06:50;;;;;;;137.88;40.25;;;6.20;99.90;;;;;;5064267;28;20477;-73
2021/03/04 00:09:16;;;;;;;141.98;37.17;;;6.20;99.90;;;;;;5072199;28;20455;-72
2021/03/04 00:11:41;;;;;;;139.68;37.90;;;6.10;99.90;;;;;;5069897;28;20024;-72
2021/03/04 00:14:07;;;;;;;164.90;41.88;;;6.00;99.90;;;;;;5064928;28;20020;-73
2021/03/04 00:16:32;;;;;;;148.80;39.33;;;5.80;99.90;;;;;;5069220;28;20040;-73
2021/03/04 00:18:58;;;;;;;152.50;39.47;;;5.80;99.90;;;;;;5070480;28;20484;-74
2021/03/04 00:21:24;;;;;;;155.82;39.70;;;5.80;99.90;;;;;;5073918;28;20044;-73
2021/03/04 00:23:49;;;;;;;152.80;40.50;;;5.80;99.90;;;;;;5073535;28;20025;-73
2021/03/04 00:26:15;;;;;;;152.50;38.70;;;5.80;99.90;;;;;;5069450;28;20091;-73
2021/03/04 00:28:40;;;;;;;158.40;41.78;;;5.80;99.90;;;;;;5074050;28;20036;-73
2021/03/04 00:31:06;;;;;;;162.43;39.20;;;5.80;99.90;;;;;;5076400;28;20464;-71
2021/03/04 00:33:32;;;;;;;170.50;40.67;;;5.70;99.90;;;;;;5074954;28;20090;-73
2021/03/04 00:35:57;;;;;;;174.02;41.50;;;5.70;99.90;;;;;;5080266;28;20029;-72
2021/03/04 00:38:23;;;;;;;161.90;37.90;;;5.70;99.90;;;;;;5073967;28;20063;-72
2021/03/04 00:40:49;;;;;;;142.77;39.70;;;5.80;99.90;;;;;;5074572;28;20028;-72
2021/03/04 00:43:14;;;;;;;151.98;38.63;;;5.80;99.90;;;;;;5074132;28;20587;-72
2021/03/04 00:45:40;;;;;;;155.45;37.78;;;5.80;99.90;;;;;;5074116;28;20028;-71
2021/03/04 00:48:08;;;;;;;148.60;40.67;;;5.80;99.90;;;;;;5071318;28;20438;-72
2021/03/04 00:50:34;;;;;;;146.55;37.72;;;5.80;99.90;;;;;;5075549;28;20056;-73
2021/03/04 00:53:00;;;;;;;137.55;37.22;;;5.80;99.90;;;;;;5075492;28;20067;-72
2021/03/04 00:55:25;;;;;;;142.43;37.15;;;5.80;99.90;;;;;;5074207;28;20028;-72
2021/03/04 00:57:51;;;;;;;139.80;38.58;;;5.70;99.90;;;;;;5070538;28;20025;-72
2021/03/04 01:00:17;;;;;;;161.38;38.55;;;5.80;99.90;;;;;;5064506;28;20416;-72
2021/03/04 01:02:42;;;;;;;152.73;36.38;;;5.80;99.90;;;;;;5075470;28;20036;-73
2021/03/04 01:05:08;;;;;;;131.02;36.28;;;5.70;99.90;;;;;;5074847;28;20028;-73
2021/03/04 01:07:34;;;;;;;145.10;37.03;;;5.70;99.90;;;;;;5074096;28;20372;-72
2021/03/04 01:10:00;;;;;;;124.72;34.92;;;5.60;99.90;;;;;;5074722;28;20074;-72
2021/03/04 01:12:26;;;;;;;128.82;35.78;;;5.50;99.90;;;;;;5075935;28;20024;-71
2021/03/04 01:14:51;;;;;;;132.85;34.10;;;5.50;99.90;;;;;;5073278;28;20454;-71
2021/03/04 01:17:17;;;;;;;132.48;35.35;;;5.60;99.90;;;;;;5074835;28;20111;-72
2021/03/04 01:19:43;;;;;;;128.00;31.80;;;5.60;99.90;;;;;;5075102;28;20456;-71
2021/03/04 01:22:08;;;;;;;121.43;31.92;;;5.50;99.90;;;;;;5073945;28;20033;-71
2021/03/04 01:24:34;;;;;;;106.05;29.95;;;5.50;99.90;;;;;;5075163;28;20032;-72
2021/03/04 01:27:00;;;;;;;105.60;28.50;;;5.40;99.90;;;;;;5074575;28;20025;-72
2021/03/04 01:29:25;;;;;;;101.68;29.20;;;5.40;99.90;;;;;;5073608;28;20124;-72
2021/03/04 01:31:51;;;;;;;96.05;28.52;;;5.40;99.90;;;;;;5074191;28;20477;-72
2021/03/04 01:34:17;;;;;;;104.50;29.20;;;5.40;99.90;;;;;;5073446;28;20138;-72
2021/03/04 01:36:43;;;;;;;98.25;28.85;;;5.30;99.90;;;;;;5070851;28;20481;-71
2021/03/04 01:39:09;;;;;;;127.93;33.97;;;5.30;99.90;;;;;;5073324;28;20025;-72
2021/03/04 01:41:34;;;;;;;99.85;30.67;;;5.30;99.90;;;;;;5074133;28;20492;-72
2021/03/04 01:44:00;;;;;;;100.95;27.92;;;5.40;99.90;;;;;;5073092;28;20029;-72
2021/03/04 01:46:26;;;;;;;116.72;31.42;;;5.50;99.90;;;;;;5074317;28;20031;-71
2021/03/04 01:48:52;;;;;;;106.40;33.13;;;5.50;99.90;;;;;;5073839;28;20113;-72
2021/03/04 01:51:19;;;;;;;107.95;29.55;;;5.50;99.90;;;;;;5074756;28;20082;-72
2021/03/04 01:53:44;;;;;;;96.43;29.63;;;5.50;99.90;;;;;;5072928;28;20074;-72
2021/03/04 01:56:11;;;;;;;113.60;31.40;;;5.50;99.90;;;;;;5073155;28;20424;-72
2021/03/04 01:58:37;;;;;;;107.95;31.23;;;5.50;99.90;;;;;;5070092;28;20056;-71
2021/03/04 02:01:02;;;;;;;112.05;28.88;;;5.50;99.90;;;;;;5073740;28;20071;-72
2021/03/04 02:03:29;;;;;;;85.10;28.60;;;5.50;99.90;;;;;;5074396;28;20081;-72
2021/03/04 02:05:54;;;;;;;90.03;28.17;;;5.50;99.90;;;;;;5072019;28;20538;-72
2021/03/04 02:08:35;;;;;;;83.07;27.40;;;5.40;99.90;;;;;;5073338;28;20041;-71
2021/03/04 02:11:28;;;;;;;88.80;28.23;;;5.40;99.90;;;;;;5073321;28;20485;-71
2021/03/04 02:14:17;;;;;;;97.80;28.90;;;5.50;99.90;;;;;;5072588;28;20576;-72
2021/03/04 02:16:46;;;;;;;89.65;27.05;;;5.50;99.90;;;;;;5071790;28;20037;-72
2021/03/04 02:19:49;;;;;;;87.32;28.33;;;5.40;99.90;;;;;;5073984;28;20288;-72
2021/03/04 02:22:24;;;;;;;85.45;27.15;;;5.40;99.90;;;;;;5073476;28;20024;-72
2021/03/04 02:25:03;;;;;;;82.13;25.92;;;5.40;99.90;;;;;;5072301;28;20036;-72
2021/03/04 02:27:29;;;;;;;79.38;24.25;;;5.30;99.90;;;;;;5073776;28;20021;-71
2021/03/04 02:30:01;;;;;;;76.78;25.25;;;5.30;99.90;;;;;;5074305;28;20035;-71
2021/03/04 02:32:28;;;;;;;77.57;25.30;;;5.30;99.90;;;;;;5073663;28;20048;-71
2021/03/04 02:35:22;;;;;;;72.22;24.42;;;5.30;99.90;;;;;;5070606;28;20043;-72
2021/03/04 02:37:53;;;;;;;77.22;24.55;;;5.30;99.90;;;;;;5058320;28;20459;-72
2021/03/04 02:40:21;;;;;;;79.80;23.80;;;5.20;99.90;;;;;;5073533;28;20115;-72
2021/03/04 02:42:49;;;;;;;91.97;25.95;;;5.20;99.90;;;;;;5072062;28;20090;-72
2021/03/04 02:45:16;;;;;;;83.07;25.38;;;5.10;99.90;;;;;;5073082;28;20023;-72
2021/03/04 02:50:27;;;;;;;79.25;24.95;;;5.00;99.90;;;;;;5073254;28;20230;-72
2021/03/04 02:52:53;;;;;;;74.75;23.40;;;5.10;99.90;;;;;;5073209;28;20485;-72
2021/03/04 02:55:21;;;;;;;75.65;24.65;;;5.10;99.90;;;;;;5077360;28;20020;-71
2021/03/04 02:57:48;;;;;;;84.45;24.42;;;5.10;99.90;;;;;;5072270;28;20078;-71
2021/03/04 03:00:18;;;;;;;82.22;23.52;;;5.20;99.90;;;;;;5071757;28;20074;-71
2021/03/04 03:02:45;;;;;;;74.93;24.83;;;5.20;99.90;;;;;;5072399;28;20032;-71
2021/03/04 03:05:13;;;;;;;79.25;25.05;;;5.30;99.90;;;;;;5071259;28;20131;-72
2021/03/04 03:07:40;;;;;;;;;;;5.20;99.90;;;;;;5072468;28;20063;-72
2021/03/04 03:10:08;;;;;;;71.82;22.50;;;5.20;99.90;;;;;;5070044;28;19979;-71
2021/03/04 03:12:37;;;;;;;70.07;23.52;;;5.30;99.90;;;;;;5069374;28;20127;-73
2021/03/04 03:15:15;;;;;;;73.80;24.02;;;5.20;99.90;;;;;;5071380;28;20488;-72
2021/03/04 03:17:41;;;;;;;81.47;25.45;;;5.20;99.90;;;;;;5066535;28;20523;-72
2021/03/04 03:20:10;;;;;;;88.68;27.15;;;5.10;99.90;;;;;;5072603;28;20120;-73
2021/03/04 03:22:36;;;;;;;101.20;27.00;;;5.10;99.90;;;;;;5073478;28;20020;-73
2021/03/04 03:25:06;;;;;;;80.90;25.30;;;5.10;99.90;;;;;;5072903;28;20037;-73
2021/03/04 03:27:31;;;;;;;80.90;23.75;;;5.00;99.90;;;;;;5070989;28;20021;-72
2021/03/04 03:29:57;;;;;;;72.57;23.55;;;5.00;99.90;;;;;;5063365;28;20035;-72
2021/03/04 03:32:25;;;;;;;73.95;23.30;;;5.00;99.90;;;;;;5071559;28;20037;-72
2021/03/04 03:34:52;;;;;;;59.67;21.63;;;5.10;99.90;;;;;;5072636;28;20039;-73
2021/03/04 03:37:18;;;;;;;75.55;22.55;;;5.10;99.90;;;;;;5071649;28;20455;-73
2021/03/04 03:39:45;;;;;;;70.38;22.30;;;5.10;99.90;;;;;;5069637;28;20058;-73
2021/03/04 03:42:11;;;;;;;58.13;22.10;;;4.90;99.90;;;;;;5071583;28;20024;-72
2021/03/04 03:44:38;;;;;;;59.45;20.73;;;5.00;99.90;;;;;;5072118;28;20036;-71
2021/03/04 03:47:05;;;;;;;62.05;20.63;;;5.00;99.90;;;;;;5070864;28;20028;-71
2021/03/04 03:49:32;;;;;;;58.85;19.88;;;5.10;99.90;;;;;;5072389;28;20039;-72
2021/03/04 03:52:01;;;;;;;64.55;20.70;;;5.00;99.90;;;;;;5071475;28;20037;-72
2021/03/04 03:54:28;;;;;;;59.45;18.70;;;5.00;99.90;;;;;;5071431;28;20025;-71
2021/03/04 03:56:55;;;;;;;60.30;20.65;;;5.00;99.90;;;;;;5065916;28;20047;-72
2021/03/04 03:59:23;;;;;;;56.78;19.77;;;5.00;99.90;;;;;;5067666;28;20051;-71
2021/03/04 04:01:49;;;;;;;52.60;19.35;;;5.00;99.90;;;;;;5071647;28;20029;-72
2021/03/04 04:04:15;;;;;;;52.47;17.70;;;5.00;99.90;;;;;;5077481;28;20036;-71
2021/03/04 04:06:43;;;;;;;60.08;19.80;;;5.10;99.90;;;;;;5078593;28;20025;-71
2021/03/04 04:09:09;;;;;;;53.40;19.95;;;5.10;99.90;;;;;;5078179;28;20354;-72
2021/03/04 04:11:36;;;;;;;51.78;19.70;;;5.10;99.90;;;;;;5081677;28;20566;-72
2021/03/04 04:14:02;;;;;;;56.55;19.58;;;5.10;99.90;;;;;;5085338;28;20380;-72
2021/03/04 04:16:28;;;;;;;54.92;19.80;;;5.10;99.90;;;;;;5078085;28;20495;-72
2021/03/04 04:18:56;;;;;;;59.08;21.15;;;5.10;99.90;;;;;;5078309;28;20017;-73
2021/03/04 04:21:22;;;;;;;47.47;18.30;;;5.10;99.90;;;;;;5079069;28;20545;-72
2021/03/04 04:23:50;;;;;;;58.72;21.23;;;5.20;99.90;;;;;;5078585;28;20463;-72
2021/03/04 04:26:16;;;;;;;52.13;20.90;;;5.10;99.90;;;;;;5078624;28;20062;-71
2021/03/04 04:28:41;;;;;;;59.00;20.33;;;5.20;99.90;;;;;;5076635;28;20039;-72
2021/03/04 04:31:07;;;;;;;55.42;20.65;;;5.10;99.90;;;;;;5066042;28;20107;-73
2021/03/04 04:33:33;;;;;;;66.88;22.17;;;5.10;99.90;;;;;;5069695;28;20424;-72
2021/03/04 04:35:59;;;;;;;59.90;21.42;;;5.10;99.90;;;;;;5077084;28;20503;-72
2021/03/04 04:38:25;;;;;;;60.50;20.83;;;5.10;99.90;;;;;;5071986;28;20021;-72
2021/03/04 04:40:51;;;;;;;75.95;22.13;;;5.10;99.90;;;;;;5078716;28;20028;-72
2021/03/04 04:43:17;;;;;;;66.93;20.42;;;5.10;99.90;;;;;;5075793;28;20036;-72
2021/03/04 04:45:43;;;;;;;69.40;21.80;;;5.10;99.90;;;;;;5077503;28;20031;-73
2021/03/04 04:48:09;;;;;;;68.55;24.27;;;5.00;99.90;;;;;;5078481;28;20016;-72
2021/03/04 04:50:34;;;;;;;62.42;21.25;;;4.90;99.90;;;;;;5077519;28;20051;-72
2021/03/04 04:53:00;;;;;;;64.53;21.48;;;5.00;99.90;;;;;;5078652;28;20032;-72
2021/03/04 04:55:26;;;;;;;63.85;21.52;;;5.10;99.90;;;;;;5077714;28;20028;-72
2021/03/04 04:57:51;;;;;;;69.72;22.58;;;5.10;99.90;;;;;;5070958;28;20029;-73
2021/03/04 05:00:18;;;;;;;70.88;22.50;;;5.20;99.90;;;;;;5078042;28;20028;-72
2021/03/04 05:02:44;;;;;;;66.38;22.25;;;5.20;99.90;;;;;;5076563;28;20029;-72
2021/03/04 05:05:10;;;;;;;60.65;20.55;;;5.20;99.90;;;;;;5076943;28;20044;-73
2021/03/04 05:07:36;;;;;;;51.83;21.23;;;5.20;99.90;;;;;;5076880;28;20032;-73
2021/03/04 05:10:05;;;;;;;58.45;20.60;;;5.20;99.90;;;;;;5078663;28;20039;-72
2021/03/04 05:12:31;;;;;;;48.40;18.58;;;5.10;99.90;;;;;;5078450;28;20028;-72
2021/03/04 05:14:57;;;;;;;62.88;19.95;;;5.20;99.90;;;;;;5073520;28;20373;-72
2021/03/04 05:17:22;;;;;;;65.50;20.00;;;5.10;99.90;;;;;;5074530;28;20073;-72
2021/03/04 05:19:48;;;;;;;46.03;16.70;;;5.10;99.90;;;;;;5072836;28;20090;-71
2021/03/04 05:22:14;;;;;;;55.58;20.08;;;5.10;99.90;;;;;;5075470;28;20108;-72
2021/03/04 05:24:39;;;;;;;62.40;22.30;;;5.10;99.90;;;;;;5075171;28;20033;-72
2021/03/04 05:27:05;;;;;;;59.92;20.60;;;5.10;99.90;;;;;;5074822;28;20039;-72
2021/03/04 05:29:31;;;;;;;56.88;20.30;;;5.00;99.90;;;;;;5074550;28;20034;-72
2021/03/04 05:31:56;;;;;;;61.08;20.95;;;5.00;99.90;;;;;;5074918;28;20119;-72
2021/03/04 05:34:22;;;;;;;53.13;19.02;;;5.00;99.90;;;;;;5054144;28;20032;-72
2021/03/04 05:36:48;;;;;;;59.10;19.95;;;5.10;99.90;;;;;;5071412;28;20032;-72
2021/03/04 05:39:14;;;;;;;57.47;21.00;;;5.10;99.90;;;;;;5072076;28;20481;-72
2021/03/04 05:41:40;;;;;;;63.17;20.63;;;5.00;99.90;;;;;;5074991;28;20027;-72
2021/03/04 05:44:07;;;;;;;54.10;21.13;;;5.10;99.90;;;;;;5074997;28;20389;-72
2021/03/04 05:46:34;;;;;;;62.75;21.73;;;5.00;99.90;;;;;;5073146;28;20028;-72
2021/03/04 05:49:01;;;;;;;65.00;21.08;;;5.00;99.90;;;;;;5073126;28;20469;-71
2021/03/04 05:51:28;;;;;;;66.78;21.23;;;5.00;99.90;;;;;;5072680;28;20042;-73
2021/03/04 05:53:57;;;;;;;68.47;22.73;;;5.00;99.90;;;;;;5069731;28;20020;-73
2021/03/04 05:56:23;;;;;;;61.80;20.73;;;5.00;99.90;;;;;;5073570;28;20024;-72
2021/03/04 05:58:50;;;;;;;60.75;21.30;;;5.00;99.90;;;;;;5074723;28;20028;-72
2021/03/04 06:01:17;;;;;;;60.27;19.83;;;5.10;99.90;;;;;;5074637;28;20052;-71
2021/03/04 06:03:44;;;;;;;64.28;20.85;;;5.10;99.90;;;;;;5074744;28;20278;-72
2021/03/04 06:06:11;;;;;;;68.73;20.77;;;5.10;99.90;;;;;;5074521;28;20033;-71
2021/03/04 06:08:36;;;;;;;73.28;21.60;;;5.10;99.90;;;;;;5069190;28;20373;-71
2021/03/04 06:11:03;;;;;;;64.38;21.52;;;5.00;99.90;;;;;;5073087;28;20036;-72
2021/03/04 06:13:30;;;;;;;71.38;19.85;;;5.10;99.90;;;;;;5071466;28;20032;-72
2021/03/04 06:15:56;;;;;;;59.25;21.05;;;5.10;99.90;;;;;;5072098;28;20044;-72
2021/03/04 06:18:22;;;;;;;67.78;21.10;;;5.10;99.90;;;;;;5071511;28;20033;-72
2021/03/04 06:20:48;;;;;;;64.88;20.55;;;5.00;99.90;;;;;;5073860;28;20033;-72
2021/03/04 06:23:14;;;;;;;66.28;19.80;;;5.00;99.90;;;;;;5072321;28;20055;-72
2021/03/04 06:25:43;;;;;;;71.07;21.48;;;5.00;99.90;;;;;;5071273;28;20115;-72
2021/03/04 06:28:09;;;;;;;60.05;21.00;;;5.10;99.90;;;;;;5073516;28;20024;-73
2021/03/04 06:30:39;;;;;;;75.45;21.52;;;5.10;99.90;;;;;;5074414;28;20047;-72
2021/03/04 06:33:08;;;;;;;55.90;18.45;;;5.10;99.90;;;;;;5064079;28;20481;-72
2021/03/04 06:35:46;;;;;;;65.20;20.50;;;5.10;99.90;;;;;;5071364;28;20119;-71
2021/03/04 06:38:17;;;;;;;73.47;22.90;;;5.20;99.90;;;;;;5071553;28;20036;-72
2021/03/04 06:40:43;;;;;;;69.22;23.05;;;5.10;99.90;;;;;;5068700;28;20048;-72
2021/03/04 06:43:19;;;;;;;65.53;20.58;;;5.10;99.90;;;;;;5070022;28;20024;-71
2021/03/04 06:45:46;;;;;;;68.10;19.85;;;5.00;99.90;;;;;;5072323;28;20021;-72
2021/03/04 06:48:17;;;;;;;67.65;21.50;;;5.00;99.90;;;;;;5071449;28;20032;-72
2021/03/04 06:50:57;;;;;;;64.53;19.88;;;5.10;99.90;;;;;;5069401;28;20066;-71
2021/03/04 06:53:23;;;;;;;71.80;20.83;;;5.10;99.90;;;;;;5072430;28;20017;-72
2021/03/04 06:55:55;;;;;;;70.55;22.55;;;5.10;99.90;;;;;;5071502;28;20060;-72
2021/03/04 06:58:29;;;;;;;71.85;21.48;;;5.10;99.90;;;;;;5071462;28;20107;-72
2021/03/04 07:01:15;;;;;;;79.15;22.52;;;5.10;99.90;;;;;;5072969;28;20534;-73
2021/03/04 07:03:40;;;;;;;74.38;22.10;;;5.10;99.90;;;;;;5073371;28;20064;-72
2021/03/04 07:06:09;;;;;;;64.40;20.95;;;5.10;99.90;;;;;;5057303;28;20072;-71
2021/03/04 07:08:38;;;;;;;69.00;20.13;;;5.10;99.90;;;;;;5072879;28;20032;-72
2021/03/04 07:11:09;;;;;;;76.50;21.38;;;5.10;99.90;;;;;;5069390;28;20045;-73
2021/03/04 07:13:37;;;;;;;69.70;21.67;;;5.20;99.90;;;;;;5069647;28;20401;-72
2021/03/04 07:16:08;;;;;;;78.20;22.02;;;5.20;99.90;;;;;;5071578;28;20025;-73
2021/03/04 07:18:43;;;;;;;78.03;22.98;;;5.20;99.90;;;;;;5072329;28;20028;-72
2021/03/04 07:21:11;;;;;;;72.75;22.27;;;5.20;99.90;;;;;;5065027;28;20082;-72
2021/03/04 07:23:39;;;;;;;76.47;21.33;;;5.20;99.90;;;;;;5072236;28;20477;-72
2021/03/04 07:26:05;;;;;;;65.43;20.00;;;5.20;99.90;;;;;;5072851;28;20025;-71
2021/03/04 07:28:31;;;;;;;66.90;20.48;;;5.30;99.90;;;;;;5073097;28;20067;-71
2021/03/04 07:30:57;;;;;;;71.90;21.60;;;5.40;99.90;;;;;;5072580;28;20032;-72
2021/03/04 07:33:24;;;;;;;67.05;18.67;;;5.40;99.90;;;;;;5072050;28;20082;-72
2021/03/04 07:35:50;;;;;;;82.78;23.55;;;5.40;99.90;;;;;;5073029;28;20032;-72
2021/03/04 07:38:26;;;;;;;78.60;23.23;;;5.40;99.90;;;;;;5069788;28;20032;-72
2021/03/04 07:41:13;;;;;;;74.72;22.13;;;5.40;99.90;;;;;;5073245;28;20025;-72
2021/03/04 07:43:46;;;;;;;83.80;22.00;;;5.40;99.90;;;;;;5072113;28;20021;-72
2021/03/04 07:46:28;;;;;;;75.45;21.52;;;5.40;99.90;;;;;;5070410;28;20488;-72
2021/03/04 07:48:54;;;;;;;80.63;24.55;;;5.40;99.90;;;;;;5072879;28;20055;-72
2021/03/04 07:51:20;;;;;;;65.28;21.27;;;5.40;99.90;;;;;;5071556;28;20063;-72
2021/03/04 07:53:46;;;;;;;85.18;23.00;;;5.40;99.90;;;;;;5073101;28;20024;-72
2021/03/04 07:56:26;;;;;;;78.40;22.73;;;5.50;99.90;;;;;;5070160;28;20025;-71
2021/03/04 07:58:53;;;;;;;73.68;23.38;;;5.50;99.90;;;;;;5071625;28;20424;-72
2021/03/04 08:01:19;;;;;;;80.47;22.17;;;5.40;99.90;;;;;;5071157;28;20016;-72
2021/03/04 08:03:50;;;;;;;85.80;24.92;;;5.50;99.90;;;;;;5071254;28;20121;-71
2021/03/04 08:06:18;;;;;;;85.53;21.92;;;5.50;99.90;;;;;;5070534;28;20052;-72
2021/03/04 08:08:47;;;;;;;77.97;22.88;;;5.40;99.90;;;;;;5070568;28;20028;-72
2021/03/04 08:11:27;;;;;;;84.78;23.92;;;5.40;99.90;;;;;;5071148;28;20101;-71
2021/03/04 08:13:53;;;;;;;82.18;23.48;;;5.40;99.90;;;;;;5068122;28;20029;-72
2021/03/04 08:16:19;;;;;;;85.05;22.27;;;5.40;99.90;;;;;;5071641;28;20031;-72
2021/03/04 08:18:57;;;;;;;66.35;20.05;;;5.40;99.90;;;;;;5070845;28;20040;-73
2021/03/04 08:21:23;;;;;;;72.75;20.70;;;5.40;99.90;;;;;;5071741;28;20035;-74
2021/03/04 08:23:50;;;;;;;58.53;18.50;;;5.40;99.90;;;;;;5066235;28;20493;-72
2021/03/04 08:26:23;;;;;;;62.35;19.65;;;5.40;99.90;;;;;;5067310;28;20024;-73
2021/03/04 08:28:49;;;;;;;61.17;19.45;;;5.40;99.90;;;;;;5065447;28;20059;-72
2021/03/04 08:31:15;;;;;;;61.28;17.63;;;5.40;99.90;;;;;;5069086;28;20097;-70
2021/03/04 08:33:40;;;;;;;60.22;20.27;;;5.30;99.90;;;;;;5063398;28;20041;-69
2021/03/04 08:36:06;;;;;;;62.60;20.77;;;5.40;99.90;;;;;;5060394;28;20032;-70
2021/03/04 08:38:40;;;;;;;70.40;19.50;;;5.40;99.90;;;;;;5069323;28;20028;-72
2021/03/04 08:41:09;;;;;;;66.30;18.98;;;5.40;99.90;;;;;;5062368;28;20535;-72
2021/03/04 08:43:34;;;;;;;61.20;17.85;;;5.40;99.90;;;;;;5058768;28;20024;-70
2021/03/04 08:46:06;;;;;;;58.20;18.35;;;5.40;99.90;;;;;;5073277;28;20035;-71
2021/03/04 08:48:32;;;;;;;49.50;17.73;;;5.40;99.90;;;;;;5065918;28;20016;-71
2021/03/04 08:51:03;;;;;;;54.95;19.90;;;5.50;99.90;;;;;;5075351;28;20357;-71
2021/03/04 08:53:32;;;;;;;54.35;17.38;;;5.50;99.90;;;;;;5068790;28;20064;-71
2021/03/04 08:56:00;;;;;;;63.22;19.27;;;5.40;99.90;;;;;;5072675;28;20040;-70
2021/03/04 08:58:27;;;;;;;56.55;17.02;;;5.50;99.90;;;;;;5075626;28;20103;-73
2021/03/04 09:01:01;;;;;;;40.28;14.27;;;5.50;99.90;;;;;;5075108;28;20021;-69
2021/03/04 09:03:32;;;;;;;50.65;15.48;;;5.50;99.90;;;;;;5073302;28;20039;-71
2021/03/04 09:06:09;;;;;;;43.88;14.27;;;5.50;99.90;;;;;;5073794;28;20098;-70
2021/03/04 09:08:42;;;;;;;45.97;14.07;;;5.60;99.90;;;;;;5069027;28;20020;-71
2021/03/04 09:11:21;;;;;;;42.22;12.93;;;5.60;99.90;;;;;;5075224;28;20452;-70
2021/03/04 09:13:47;;;;;;;39.17;12.93;;;5.70;99.90;;;;;;5071835;28;20130;-71
2021/03/04 09:16:12;;;;;;;39.70;14.35;;;5.60;99.90;;;;;;5071727;28;20115;-72
2021/03/04 09:18:46;;;;;;;39.70;12.82;;;5.50;99.90;;;;;;5075123;28;20036;-71
2021/03/04 09:21:13;;;;;;;38.88;13.65;;;5.50;99.90;;;;;;5071854;28;20032;-71
2021/03/04 09:23:39;;;;;;;40.70;13.13;;;5.40;99.90;;;;;;5074552;28;20063;-71
2021/03/04 09:26:07;;;;;;;35.90;13.40;;;5.50;99.90;;;;;;5074483;28;20785;-72
2021/03/04 09:28:36;;;;;;;37.67;11.93;;;5.50;99.90;;;;;;5070554;28;20113;-71
2021/03/04 09:31:13;;;;;;;34.53;12.35;;;5.50;99.90;;;;;;5071752;28;20032;-70
2021/03/04 09:33:40;;;;;;;35.57;10.93;;;5.60;99.90;;;;;;5075259;28;20385;-70
2021/03/04 09:36:06;;;;;;;39.15;11.88;;;5.60;99.90;;;;;;5072357;28;20055;-71
2021/03/04 09:38:34;;;;;;;31.17;11.18;;;5.60;99.90;;;;;;5073586;28;20025;-71
2021/03/04 09:41:14;;;;;;;35.08;11.43;;;5.60;99.90;;;;;;5065635;28;20072;-70
2021/03/04 09:43:45;;;;;;;36.65;11.85;;;5.60;99.90;;;;;;5070706;28;20032;-71
2021/03/04 09:46:27;;;;;;;32.50;11.20;;;5.60;99.90;;;;;;5073105;28;20377;-70
2021/03/04 09:48:53;;;;;;;31.35;11.05;;;5.60;99.90;;;;;;5069555;28;20372;-71
2021/03/04 09:51:19;;;;;;;36.40;11.77;;;5.50;99.90;;;;;;5073131;28;20037;-70
2021/03/04 09:53:48;;;;;;;35.63;11.05;;;5.60;99.90;;;;;;5072284;28;20503;-70
2021/03/04 09:56:21;;;;;;;33.70;11.07;;;5.60;99.90;;;;;;5065640;28;20031;-69
2021/03/04 09:58:47;;;;;;;33.70;11.98;;;5.60;99.90;;;;;;5066012;28;20086;-71
2021/03/04 10:01:12;;;;;;;36.42;11.85;;;5.50;99.90;;;;;;5062068;28;20480;-71
2021/03/04 10:03:40;;;;;;;30.92;10.15;;;5.40;99.90;;;;;;5064498;28;20025;-70
2021/03/04 10:06:08;;;;;;;28.33;8.98;;;5.50;99.90;;;;;;5063686;28;20553;-71
2021/03/04 10:08:39;;;;;;;;;;;5.50;99.90;;;;;;5063764;28;20017;-69
2021/03/04 10:11:06;;;;;;;22.10;7.40;;;5.50;99.90;;;;;;5068519;28;19962;-70
2021/03/04 10:13:33;;;;;;;20.45;7.22;;;5.40;99.90;;;;;;5066863;28;20021;-70
2021/03/04 10:16:12;;;;;;;17.13;7.05;;;5.40;99.90;;;;;;5063035;28;20056;-70
2021/03/04 10:18:38;;;;;;;12.70;5.43;;;5.40;99.90;;;;;;5063669;28;20086;-71
2021/03/04 10:21:04;;;;;;;13.50;5.65;;;5.40;99.90;;;;;;5067629;28;20032;-69
2021/03/04 10:23:31;;;;;;;15.23;4.65;;;5.50;99.90;;;;;;5072829;28;20025;-69
2021/03/04 10:25:56;;;;;;;11.68;4.88;;;5.40;99.90;;;;;;5073902;28;20562;-68
2021/03/04 10:28:22;;;;;;;8.93;4.32;;;5.40;99.90;;;;;;5074000;28;20036;-69
2021/03/04 10:30:48;;;;;;;8.82;4.07;;;5.40;99.90;;;;;;5073063;28;20028;-68
2021/03/04 10:33:13;;;;;;;12.25;5.03;;;5.40;99.90;;;;;;5065431;28;20024;-70
2021/03/04 10:35:39;;;;;;;9.07;3.60;;;5.20;99.90;;;;;;5072137;28;20028;-70
2021/03/04 10:38:05;;;;;;;9.75;4.35;;;5.20;99.90;;;;;;5062347;28;20035;-70
2021/03/04 10:40:31;;;;;;;12.77;5.07;;;5.20;99.90;;;;;;5071419;28;20405;-70
2021/03/04 10:42:59;;;;;;;16.17;4.22;;;5.30;99.90;;;;;;5071745;28;20024;-70
2021/03/04 10:45:25;;;;;;;24.88;4.90;;;5.40;99.90;;;;;;5071477;28;20036;-70
2021/03/04 10:47:51;;;;;;;15.40;4.40;;;5.50;99.90;;;;;;5062207;28;20028;-70
2021/03/04 10:50:20;;;;;;;13.32;4.70;;;5.60;99.90;;;;;;5071613;28;20051;-69
2021/03/04 10:52:46;;;;;;;9.02;4.25;;;5.60;99.90;;;;;;5063980;28;20033;-71
2021/03/04 10:55:12;;;;;;;8.65;3.85;;;5.70;99.90;;;;;;5064961;28;20036;-70
2021/03/04 10:57:41;;;;;;;12.73;4.35;;;5.80;99.90;;;;;;5061101;28;20045;-70
2021/03/04 11:00:13;;;;;;;8.95;4.38;;;5.70;99.90;;;;;;5066489;28;20377;-70
2021/03/04 11:02:38;;;;;;;11.27;4.38;;;5.80;99.90;;;;;;5063835;28;20120;-72
2021/03/04 11:05:06;;;;;;;8.43;4.57;;;5.90;99.90;;;;;;5066327;28;20536;-71
2021/03/04 11:07:32;;;;;;;10.98;4.18;;;6.00;99.90;;;;;;5062438;28;20024;-70
2021/03/04 11:09:57;;;;;;;9.38;4.72;;;5.80;99.90;;;;;;5063132;28;20021;-69
2021/03/04 11:12:23;;;;;;;9.90;4.82;;;5.80;99.90;;;;;;5058772;28;20063;-70
2021/03/04 11:14:48;;;;;;;12.65;5.53;;;5.90;99.90;;;;;;5059029;28;20033;-69
2021/03/04 11:17:15;;;;;;;10.25;4.72;;;6.10;99.90;;;;;;5059332;28;20488;-70
2021/03/04 11:19:41;;;;;;;7.97;4.25;;;6.10;99.90;;;;;;5062897;28;20032;-69
2021/03/04 11:22:07;;;;;;;6.28;4.00;;;6.30;99.90;;;;;;5056715;28;20476;-69
2021/03/04 11:24:33;;;;;;;7.43;4.35;;;6.40;99.90;;;;;;5062423;28;20020;-69
2021/03/04 11:26:59;;;;;;;8.40;5.00;;;6.50;99.90;;;;;;5061019;28;20408;-68
2021/03/04 11:29:25;;;;;;;7.88;4.13;;;6.50;99.90;;;;;;5059331;28;20538;-69
2021/03/04 11:31:51;;;;;;;6.32;3.55;;;6.70;99.90;;;;;;5058994;28;20020;-69
2021/03/04 11:34:17;;;;;;;6.43;3.63;;;6.70;99.90;;;;;;5070049;28;20024;-69
2021/03/04 11:36:42;;;;;;;6.72;3.72;;;6.70;99.90;;;;;;5069525;28;20025;-69
2021/03/04 11:39:08;;;;;;;6.45;3.45;;;6.70;99.90;;;;;;5072735;28;20031;-70
2021/03/04 11:41:33;;;;;;;6.28;4.07;;;6.70;99.90;;;;;;5071005;28;20490;-69
2021/03/04 11:44:00;;;;;;;6.43;3.90;;;6.80;99.90;;;;;;5069486;28;20023;-70
2021/03/04 11:46:26;;;;;;;4.85;3.63;;;6.80;99.90;;;;;;5071676;28;20027;-70
2021/03/04 11:48:53;;;;;;;5.50;3.92;;;6.90;99.90;;;;;;5070840;28;20090;-70
2021/03/04 11:51:19;;;;;;;5.20;3.17;;;6.90;99.90;;;;;;5069948;28;20426;-70
2021/03/04 11:53:45;;;;;;;7.82;3.80;;;6.90;99.90;;;;;;5072028;28;20512;-70
2021/03/04 11:56:10;;;;;;;7.63;4.20;;;7.00;99.90;;;;;;5070175;28;20086;-70
2021/03/04 11:58:36;;;;;;;6.90;3.72;;;6.80;99.90;;;;;;5067016;28;20489;-69
2021/03/04 12:01:03;;;;;;;6.55;4.50;;;6.80;99.90;;;;;;5071433;28;20500;-69
2021/03/04 12:03:28;;;;;;;6.20;3.30;;;6.80;99.90;;;;;;5069704;28;20031;-70
2021/03/04 12:05:54;;;;;;;5.82;3.38;;;6.90;99.90;;;;;;5068487;28;20455;-70
2021/03/04 12:08:20;;;;;;;6.90;3.35;;;7.00;99.90;;;;;;5068608;28;20394;-70
2021/03/04 12:10:45;;;;;;;10.25;3.10;;;7.00;99.90;;;;;;5068033;28;20033;-70
2021/03/04 12:13:11;;;;;;;7.55;3.45;;;7.20;99.90;;;;;;5069171;28;20508;-69
2021/03/04 12:15:39;;;;;;;6.28;3.17;;;7.30;99.90;;;;;;5068970;28;20033;-70
2021/03/04 12:18:05;;;;;;;6.03;2.75;;;7.10;99.90;;;;;;5068235;28;20115;-70
2021/03/04 12:20:31;;;;;;;7.60;3.20;;;7.00;99.90;;;;;;5071595;28;20063;-70
2021/03/04 12:22:58;;;;;;;5.25;2.95;;;6.90;99.90;;;;;;5073231;28;20056;-70
2021/03/04 12:25:24;;;;;;;6.38;3.20;;;6.90;99.90;;;;;;5073906;28;20031;-70
2021/03/04 12:27:50;;;;;;;4.28;2.88;;;7.00;99.90;;;;;;5073544;28;20020;-70
2021/03/04 12:30:17;;;;;;;5.65;3.08;;;7.10;99.90;;;;;;5074616;28;20021;-70
2021/03/04 12:32:43;;;;;;;8.55;2.50;;;7.20;99.90;;;;;;5068072;28;20427;-70
2021/03/04 12:35:10;;;;;;;9.68;2.88;;;7.30;99.90;;;;;;5074345;28;20021;-70
2021/03/04 12:37:36;;;;;;;4.20;2.88;;;7.50;99.90;;;;;;5074755;28;20105;-70
2021/03/04 12:40:03;;;;;;;3.78;1.90;;;7.70;99.90;;;;;;5071211;28;20032;-70
2021/03/04 12:42:28;;;;;;;3.70;2.38;;;7.80;99.90;;;;;;5068575;28;20131;-70
2021/03/04 12:44:54;;;;;;;10.38;3.15;;;7.90;99.90;;;;;;5066875;28;20203;-68
2021/03/04 12:47:20;;;;;;;2.83;2.00;;;7.80;99.90;;;;;;5075333;28;20025;-69